Time;durP1;ratioP1;P1;durP2;ratioP2;P2;SDS_P1;SDS_P2;PMS_P1;PMS_P2;Temp;Humidity;BMP_temperature;BMP_pressure;BME280_temperature;BME280_humidity;BME280_pressure;Samples;Min_cycle;Max_cycle;Signal;HPM_P1;HPM_P2
2022/11/05 00:10:48;;;;;;;3.00;1.40;;;5.60;99.90;;;;;;4987368;28;20046;-72
2022/11/05 00:18:43;;;;;;;5.75;2.08;;;5.70;99.90;;;;;;4987761;28;20042;-72
2022/11/05 00:25:12;;;;;;;;;;;5.70;99.90;;;;;;4989224;28;20366;-72
2022/11/05 00:26:38;;;;;;;6.70;1.42;;;5.80;99.90;;;;;;4984793;28;20050;-72
2022/11/05 00:29:03;;;;;;;;;;;5.80;99.90;;;;;;4988600;28;20098;-72
2022/11/05 00:31:31;;;;;;;5.00;1.40;;;5.80;99.90;;;;;;4987465;28;19922;-72
2022/11/05 00:33:59;;;;;;;4.40;1.30;;;5.80;99.90;;;;;;4989498;28;20433;-72
2022/11/05 00:36:24;;;;;;;6.35;1.60;;;5.80;99.90;;;;;;4989308;28;20051;-72
2022/11/05 00:38:50;;;;;;;;;;;5.80;99.90;;;;;;4989572;28;20046;-73
2022/11/05 00:41:15;;;;;;;3.45;1.15;;;5.70;99.90;;;;;;4988855;28;20395;-72
2022/11/05 00:46:25;;;;;;;4.25;1.25;;;5.60;99.90;;;;;;4989192;28;19922;-73
2022/11/05 00:51:35;;;;;;;5.18;1.08;;;5.60;99.90;;;;;;4985345;28;19967;-72
2022/11/05 00:54:00;;;;;;;;;;;5.60;99.90;;;;;;4992815;28;20127;-73
2022/11/05 00:56:26;;;;;;;6.28;1.63;;;5.60;99.90;;;;;;4986857;28;19922;-72
2022/11/05 00:58:51;;;;;;;;;;;5.60;99.90;;;;;;4989048;28;20039;-72
2022/11/05 01:01:17;;;;;;;3.78;1.40;;;5.60;99.90;;;;;;4992082;28;19972;-72
2022/11/05 01:03:43;;;;;;;;;;;5.60;99.90;;;;;;4989251;28;20039;-72
2022/11/05 01:06:14;;;;;;;4.30;1.60;;;6.40;99.90;;;;;;4989140;28;19921;-72
2022/11/05 01:08:41;;;;;;;4.00;1.50;;;5.70;99.90;;;;;;4987360;28;20555;-72
2022/11/05 01:11:35;;;;;;;4.90;1.48;;;5.80;99.90;;;;;;4989124;28;20239;-72
2022/11/05 01:14:07;;;;;;;2.65;1.20;;;6.00;99.90;;;;;;4986817;28;20065;-72
2022/11/05 01:16:33;;;;;;;7.55;1.40;;;5.60;99.90;;;;;;5007837;28;20051;-72
2022/11/05 01:19:00;;;;;;;5.30;1.50;;;5.60;99.90;;;;;;4987109;28;20062;-72
2022/11/05 01:21:25;;;;;;;4.40;1.60;;;6.10;99.90;;;;;;4988688;28;20047;-72
2022/11/05 01:23:51;;;;;;;;;;;5.50;99.90;;;;;;4988600;28;20046;-72
2022/11/05 01:26:20;;;;;;;2.63;1.65;;;5.50;99.90;;;;;;4988735;28;19928;-72
2022/11/05 01:28:50;;;;;;;4.45;1.50;;;5.50;99.90;;;;;;4988740;28;20074;-72
2022/11/05 01:31:16;;;;;;;8.75;1.83;;;5.60;99.90;;;;;;4988470;28;20099;-72
2022/11/05 01:33:44;;;;;;;5.80;1.52;;;5.60;99.90;;;;;;4988563;28;20038;-71
2022/11/05 01:36:13;;;;;;;;;;;5.90;99.90;;;;;;4989021;28;20466;-71
2022/11/05 01:38:50;;;;;;;4.00;1.58;;;5.60;99.90;;;;;;4986823;28;20364;-72
2022/11/05 01:41:16;;;;;;;3.53;1.15;;;6.20;99.90;;;;;;4987760;28;20116;-71
2022/11/05 01:43:48;;;;;;;;;;;5.50;99.90;;;;;;4989711;28;20054;-71
2022/11/05 01:46:17;;;;;;;4.85;1.30;;;5.40;99.90;;;;;;4992173;28;20296;-72
2022/11/05 01:48:43;;;;;;;3.17;1.20;;;5.40;99.90;;;;;;4992412;28;20039;-72
2022/11/05 01:51:13;;;;;;;;;;;5.30;99.90;;;;;;4991469;28;20091;-72
2022/11/05 01:53:50;;;;;;;4.03;1.33;;;5.40;99.90;;;;;;4991513;28;19929;-73
2022/11/05 01:56:25;;;;;;;2.90;1.02;;;5.70;99.90;;;;;;4990592;28;20042;-72
2022/11/05 01:59:08;;;;;;;9.20;1.42;;;5.80;99.90;;;;;;4992392;28;20076;-72
2022/11/05 02:01:34;;;;;;;2.67;1.20;;;6.00;99.90;;;;;;4988894;28;20079;-71
2022/11/05 02:04:05;;;;;;;;;;;6.20;99.90;;;;;;4991993;28;20058;-71
2022/11/05 02:06:35;;;;;;;4.68;1.20;;;6.50;99.90;;;;;;4990155;28;20008;-73
2022/11/05 02:09:09;;;;;;;6.40;1.20;;;6.90;99.90;;;;;;4991729;28;20125;-73
2022/11/05 02:11:34;;;;;;;6.30;1.20;;;7.10;99.90;;;;;;5012901;28;20482;-72
2022/11/05 02:14:00;;;;;;;;;;;7.20;99.90;;;;;;4990606;28;20104;-72
2022/11/05 02:16:43;;;;;;;1.92;0.93;;;7.30;99.90;;;;;;4991374;28;20008;-73
2022/11/05 02:19:09;;;;;;;5.38;1.00;;;7.40;99.90;;;;;;4990515;28;20397;-72
2022/11/05 02:21:56;;;;;;;;;;;7.50;99.90;;;;;;4990571;28;20042;-72
2022/11/05 02:24:35;;;;;;;6.25;1.10;;;7.60;99.90;;;;;;4987646;28;19926;-72
2022/11/05 02:27:28;;;;;;;2.90;1.20;;;7.60;99.90;;;;;;4987410;28;20482;-73
2022/11/05 02:30:08;;;;;;;3.85;0.82;;;7.60;99.90;;;;;;5011454;28;20043;-73
2022/11/05 02:33:00;;;;;;;4.22;0.90;;;7.80;99.90;;;;;;4989640;28;20389;-73
2022/11/05 02:35:43;;;;;;;1.98;0.93;;;7.80;99.90;;;;;;4986278;28;20087;-73
2022/11/05 02:38:27;;;;;;;2.90;0.98;;;7.80;99.90;;;;;;4991135;28;20086;-72
2022/11/05 02:41:11;;;;;;;5.57;1.27;;;7.90;99.90;;;;;;4969920;28;20108;-73
2022/11/05 02:44:04;;;;;;;4.60;1.20;;;8.90;99.90;;;;;;4989358;28;20103;-73
2022/11/05 02:46:50;;;;;;;3.08;1.15;;;7.80;99.90;;;;;;4988409;28;20498;-72
2022/11/05 02:49:50;;;;;;;5.35;1.05;;;7.80;99.90;;;;;;5010946;28;20049;-72
2022/11/05 02:52:27;;;;;;;2.92;1.10;;;7.80;99.90;;;;;;4991335;28;20444;-72
2022/11/05 02:55:04;;;;;;;2.63;1.20;;;7.80;99.90;;;;;;4987083;28;20053;-73
2022/11/05 02:57:36;;;;;;;3.67;1.00;;;8.10;99.90;;;;;;4990388;28;20058;-72
2022/11/05 03:00:27;;;;;;;2.78;1.10;;;7.90;99.90;;;;;;4990542;28;20676;-72
2022/11/05 03:02:53;;;;;;;5.05;1.20;;;7.90;99.90;;;;;;4986452;28;20390;-72
2022/11/05 03:05:25;;;;;;;;;;;7.90;99.90;;;;;;4989491;28;20050;-73
2022/11/05 03:07:58;;;;;;;1.80;1.08;;;8.00;99.90;;;;;;4990224;28;19929;-72
2022/11/05 03:10:52;;;;;;;4.88;1.20;;;7.90;99.90;;;;;;4988901;28;20042;-72
2022/11/05 03:13:58;;;;;;;4.82;1.27;;;7.90;99.90;;;;;;4985903;28;20081;-72
2022/11/05 03:16:39;;;;;;;2.83;1.85;;;7.90;99.90;;;;;;4987298;28;20074;-72
2022/11/05 03:19:56;;;;;;;2.00;1.10;;;7.90;99.90;;;;;;4989137;28;20054;-72
2022/11/05 03:22:31;;;;;;;4.10;1.83;;;7.90;99.90;;;;;;5024727;28;20385;-72
2022/11/05 03:25:05;;;;;;;5.05;1.35;;;7.90;99.90;;;;;;4989475;28;20573;-72
2022/11/05 03:27:36;;;;;;;4.57;1.17;;;8.30;99.90;;;;;;4990204;28;20046;-72
2022/11/05 03:30:08;;;;;;;2.88;1.25;;;7.80;99.90;;;;;;4988392;28;20054;-72
2022/11/05 03:32:38;;;;;;;4.38;1.20;;;7.80;99.90;;;;;;4990296;28;20070;-72
2022/11/05 03:35:11;;;;;;;2.78;1.23;;;7.70;99.90;;;;;;4990546;28;20447;-71
2022/11/05 03:37:40;;;;;;;4.50;1.30;;;7.70;99.90;;;;;;4985580;28;20062;-72
2022/11/05 03:40:08;;;;;;;2.70;1.25;;;7.70;99.90;;;;;;4989260;28;20035;-71
2022/11/05 03:42:37;;;;;;;4.30;1.20;;;7.70;99.90;;;;;;5000721;28;20046;-72
2022/11/05 03:45:09;;;;;;;5.13;1.40;;;8.10;99.90;;;;;;4998351;28;20055;-71
2022/11/05 03:47:48;;;;;;;4.95;1.40;;;7.80;99.90;;;;;;4994805;28;20069;-72
2022/11/05 03:50:33;;;;;;;5.60;1.40;;;8.20;99.90;;;;;;4989982;28;20042;-72
2022/11/05 03:53:06;;;;;;;4.22;1.30;;;7.80;99.90;;;;;;4990457;28;20050;-72
2022/11/05 03:55:38;;;;;;;6.03;1.50;;;7.80;99.90;;;;;;4988580;28;20057;-72
2022/11/05 03:58:05;;;;;;;4.15;1.30;;;7.80;99.90;;;;;;4984070;28;20042;-72
2022/11/05 04:00:31;;;;;;;6.40;1.20;;;7.80;99.90;;;;;;4989330;28;20046;-72
2022/11/05 04:02:56;;;;;;;;;;;7.80;99.90;;;;;;4990433;28;20060;-72
2022/11/05 04:05:22;;;;;;;4.82;1.75;;;7.80;99.90;;;;;;4988583;28;19944;-72
2022/11/05 04:13:33;;;;;;;3.17;1.30;;;7.90;99.90;;;;;;4989171;28;20050;-73
2022/11/05 04:18:43;;;;;;;4.63;1.50;;;7.90;99.90;;;;;;4988944;28;20133;-72
2022/11/05 04:24:09;;;;;;;7.57;1.77;;;8.00;99.90;;;;;;4989947;28;19937;-73
2022/11/05 04:26:40;;;;;;;3.63;1.50;;;7.90;99.90;;;;;;4987487;28;20779;-73
2022/11/05 04:31:51;;;;;;;4.63;1.52;;;8.00;99.90;;;;;;4989699;28;20490;-72
2022/11/05 04:34:17;;;;;;;;;;;8.00;99.90;;;;;;4988174;28;20043;-73
2022/11/05 04:36:44;;;;;;;4.63;1.60;;;8.00;99.90;;;;;;4987803;28;19922;-73
2022/11/05 04:39:10;;;;;;;4.43;1.67;;;8.40;99.90;;;;;;4988866;28;20042;-73
2022/11/05 04:41:35;;;;;;;;;;;8.10;99.90;;;;;;4987491;28;20046;-72
2022/11/05 04:44:04;;;;;;;5.05;1.60;;;8.10;99.90;;;;;;4989335;28;20334;-72
2022/11/05 04:46:29;;;;;;;3.88;1.92;;;8.30;99.90;;;;;;4988210;28;20549;-73
2022/11/05 04:48:55;;;;;;;;;;;8.20;99.90;;;;;;4988806;28;20113;-72
2022/11/05 04:51:25;;;;;;;3.33;1.67;;;8.20;99.90;;;;;;4987756;28;20013;-72
2022/11/05 04:53:52;;;;;;;3.90;1.60;;;8.20;99.90;;;;;;4988480;28;20047;-72
2022/11/05 04:56:22;;;;;;;3.55;1.63;;;8.20;99.90;;;;;;4988907;28;20132;-72
2022/11/05 04:58:49;;;;;;;3.20;1.58;;;8.20;99.90;;;;;;4992281;28;20058;-72
2022/11/05 05:01:20;;;;;;;7.30;2.03;;;8.30;99.90;;;;;;4987101;28;20486;-72
2022/11/05 05:03:47;;;;;;;4.28;2.28;;;8.30;99.90;;;;;;4989759;28;20046;-72
2022/11/05 05:06:16;;;;;;;3.90;2.00;;;8.30;99.90;;;;;;4988981;28;20058;-72
2022/11/05 05:08:42;;;;;;;2.97;1.90;;;8.20;99.90;;;;;;4988184;28;20039;-72
2022/11/05 05:11:09;;;;;;;;;;;8.20;99.90;;;;;;4987921;28;20053;-73
2022/11/05 05:13:35;;;;;;;4.93;1.85;;;8.10;99.90;;;;;;4990997;28;20005;-72
2022/11/05 05:16:06;;;;;;;;;;;8.00;99.90;;;;;;4991887;28;20126;-72
2022/11/05 05:18:31;;;;;;;2.60;1.55;;;8.00;99.90;;;;;;4989989;28;19921;-72
2022/11/05 05:23:41;;;;;;;5.45;2.08;;;7.80;99.90;;;;;;4990296;28;19922;-72
2022/11/05 05:26:10;;;;;;;;;;;8.10;99.90;;;;;;4992704;28;20087;-72
2022/11/05 05:28:35;;;;;;;2.97;1.40;;;7.60;99.90;;;;;;4991300;28;19921;-72
2022/11/05 05:31:01;;;;;;;;;;;7.40;99.90;;;;;;4992865;28;20399;-72
2022/11/05 05:33:27;;;;;;;2.60;1.55;;;7.30;99.90;;;;;;4993211;28;19929;-72
2022/11/05 05:35:56;;;;;;;4.57;1.42;;;7.20;99.90;;;;;;4991696;28;20046;-72
2022/11/05 05:38:22;;;;;;;5.40;1.75;;;7.10;99.90;;;;;;4991444;28;20106;-72
2022/11/05 05:40:48;;;;;;;;;;;7.10;99.90;;;;;;4992350;28;20553;-72
2022/11/05 05:43:13;;;;;;;6.72;1.77;;;8.20;99.90;;;;;;4991121;28;19947;-72
2022/11/05 05:45:39;;;;;;;;;;;7.10;99.90;;;;;;4994069;28;20046;-72
2022/11/05 05:48:05;;;;;;;3.88;1.40;;;7.00;99.90;;;;;;4992060;28;19929;-72
2022/11/05 05:50:30;;;;;;;;;;;8.00;99.90;;;;;;4991405;28;20385;-72
2022/11/05 05:52:56;;;;;;;6.05;1.70;;;7.00;99.90;;;;;;4991745;28;19928;-72
2022/11/05 05:55:21;;;;;;;;;;;6.90;99.90;;;;;;4993912;28;20038;-72
2022/11/05 05:57:47;;;;;;;2.83;1.50;;;6.90;99.90;;;;;;4990679;28;20449;-72
2022/11/05 06:00:13;;;;;;;;;;;6.80;99.90;;;;;;4989073;28;20538;-72
2022/11/05 06:02:39;;;;;;;5.35;1.63;;;6.90;99.90;;;;;;4990580;28;20361;-72
2022/11/05 06:05:04;;;;;;;;;;;7.00;99.90;;;;;;4988549;28;20092;-73
2022/11/05 06:07:30;;;;;;;7.50;1.92;;;7.10;99.90;;;;;;4989753;28;19930;-72
2022/11/05 06:09:55;;;;;;;;;;;7.20;99.90;;;;;;4991372;28;20466;-72
2022/11/05 06:12:21;;;;;;;3.20;1.65;;;7.30;99.90;;;;;;4990055;28;19921;-71
2022/11/05 06:14:47;;;;;;;;;;;7.40;99.90;;;;;;4991164;28;20050;-72
2022/11/05 06:17:12;;;;;;;4.03;1.65;;;7.40;99.90;;;;;;4989797;28;19925;-72
2022/11/05 06:19:38;;;;;;;;;;;7.50;99.90;;;;;;4989460;28;20510;-72
2022/11/05 06:22:03;;;;;;;4.80;2.80;;;7.50;99.90;;;;;;4991019;28;19929;-71
2022/11/05 06:24:32;;;;;;;;;;;7.50;99.90;;;;;;4991528;28;20034;-72
2022/11/05 06:26:58;;;;;;;4.57;2.13;;;7.50;99.90;;;;;;4990058;28;20116;-72
2022/11/05 06:29:23;;;;;;;;;;;7.50;99.90;;;;;;4989198;28;20482;-73
2022/11/05 06:31:49;;;;;;;4.25;1.92;;;7.40;99.90;;;;;;4990331;28;20372;-72
2022/11/05 06:34:14;;;;;;;;;;;7.40;99.90;;;;;;4991718;28;20517;-73
2022/11/05 06:36:40;;;;;;;2.90;1.75;;;7.40;99.90;;;;;;4990577;28;19930;-72
2022/11/05 06:39:10;;;;;;;;;;;7.40;99.90;;;;;;4990508;28;20111;-72
2022/11/05 06:41:35;;;;;;;4.40;1.88;;;7.30;99.90;;;;;;4989662;28;19965;-73
2022/11/05 06:44:01;;;;;;;;;;;7.30;99.90;;;;;;4989974;28;20076;-71
2022/11/05 06:46:26;;;;;;;3.10;1.75;;;7.20;99.90;;;;;;4990007;28;20319;-72
2022/11/05 06:48:52;;;;;;;;;;;7.10;99.90;;;;;;4990897;28;20037;-72
2022/11/05 06:51:18;;;;;;;4.78;2.08;;;7.20;99.90;;;;;;4992715;28;20396;-72
2022/11/05 06:53:43;;;;;;;;;;;7.20;99.90;;;;;;4989140;28;20397;-72
2022/11/05 06:56:12;;;;;;;3.55;1.95;;;7.20;99.90;;;;;;4989545;28;19994;-72
2022/11/05 06:58:38;;;;;;;5.07;2.10;;;7.20;99.90;;;;;;4990051;28;20042;-72
2022/11/05 07:01:06;;;;;;;;;;;7.30;99.90;;;;;;4991177;28;20474;-72
2022/11/05 07:03:32;;;;;;;5.10;2.10;;;7.30;99.90;;;;;;4987320;28;20285;-71
2022/11/05 07:05:59;;;;;;;;;;;7.40;99.90;;;;;;4991335;28;20050;-71
2022/11/05 07:08:26;;;;;;;4.97;2.15;;;7.50;99.90;;;;;;4989748;28;19922;-72
2022/11/05 07:10:52;;;;;;;3.47;1.92;;;7.90;99.90;;;;;;4991474;28;20493;-71
2022/11/05 07:13:17;;;;;;;;;;;7.60;99.90;;;;;;4989277;28;20058;-71
2022/11/05 07:15:43;;;;;;;7.07;2.08;;;7.60;99.90;;;;;;4991774;28;20367;-71
2022/11/05 07:18:08;;;;;;;;;;;7.70;99.90;;;;;;4999863;28;20095;-71
2022/11/05 07:20:34;;;;;;;4.82;2.50;;;7.80;99.90;;;;;;5003168;28;20369;-72
2022/11/05 07:23:04;;;;;;;;;;;7.90;99.90;;;;;;4990563;28;20046;-72
2022/11/05 07:25:31;;;;;;;4.40;1.92;;;8.00;99.90;;;;;;4986571;28;20310;-70
2022/11/05 07:27:57;;;;;;;2.85;1.60;;;8.40;99.90;;;;;;4991486;28;20050;-72
2022/11/05 07:30:23;;;;;;;5.53;2.13;;;8.20;99.90;;;;;;4988070;28;20129;-73
2022/11/05 07:32:49;;;;;;;;;;;8.20;99.90;;;;;;4990890;28;20129;-72
2022/11/05 07:35:15;;;;;;;3.50;1.60;;;8.20;99.90;;;;;;4989408;28;19957;-72
2022/11/05 07:37:41;;;;;;;;;;;8.40;99.90;;;;;;4990278;28;20484;-72
2022/11/05 07:40:08;;;;;;;3.83;1.67;;;8.50;99.90;;;;;;4989902;28;19929;-71
2022/11/05 07:42:34;;;;;;;5.72;1.80;;;8.60;99.90;;;;;;5002898;28;20817;-73
2022/11/05 07:44:59;;;;;;;;;;;9.70;99.90;;;;;;5014146;28;20028;-72
2022/11/05 07:47:25;;;;;;;6.10;1.98;;;8.70;99.90;;;;;;5007846;28;19922;-73
2022/11/05 07:49:51;;;;;;;;;;;8.80;99.90;;;;;;4994841;28;20070;-71
2022/11/05 07:52:16;;;;;;;6.25;2.10;;;9.00;99.90;;;;;;4998353;28;19922;-71
2022/11/05 07:54:42;;;;;;;;;;;9.40;99.90;;;;;;4999711;28;20038;-71
2022/11/05 07:57:07;;;;;;;6.28;1.90;;;9.00;99.90;;;;;;4993436;28;20254;-72
2022/11/05 07:59:33;;;;;;;;;;;9.40;99.90;;;;;;4988422;28;20073;-71
2022/11/05 08:02:05;;;;;;;4.30;2.08;;;9.20;99.90;;;;;;4989996;28;20429;-72
2022/11/05 08:04:30;;;;;;;6.47;2.10;;;9.20;99.90;;;;;;4990503;28;20061;-73
2022/11/05 08:06:56;;;;;;;;;;;9.20;99.90;;;;;;4990875;28;20042;-74
2022/11/05 08:09:21;;;;;;;3.50;1.30;;;9.30;99.90;;;;;;4988359;28;19961;-86
2022/11/05 08:11:47;;;;;;;;;;;9.30;99.90;;;;;;4989476;28;20485;-76
2022/11/05 08:14:12;;;;;;;5.32;1.58;;;9.20;99.90;;;;;;4989115;28;19965;-77
2022/11/05 08:16:44;;;;;;;;;;;9.20;99.90;;;;;;4988295;28;20401;-78
2022/11/05 08:19:10;;;;;;;3.17;1.40;;;9.20;99.90;;;;;;4986987;28;20012;-83
2022/11/05 08:21:35;;;;;;;;;;;9.30;99.90;;;;;;4988656;28;20121;-79
2022/11/05 08:24:01;;;;;;;3.70;1.52;;;9.30;99.90;;;;;;4990112;28;19925;-82
2022/11/05 08:26:26;;;;;;;4.55;1.52;;;9.40;99.90;;;;;;4988609;28;20034;-73
2022/11/05 08:28:55;;;;;;;5.72;1.80;;;9.70;99.90;;;;;;4988543;28;20452;-80
2022/11/05 08:31:20;;;;;;;3.83;1.70;;;9.40;99.90;;;;;;4984945;28;20038;-76
2022/11/05 08:33:46;;;;;;;;;;;9.40;99.90;;;;;;4988152;28;20375;-77
2022/11/05 08:36:12;;;;;;;6.32;2.40;;;9.60;99.90;;;;;;4988589;28;20373;-74
2022/11/05 08:38:37;;;;;;;;;;;10.50;99.90;;;;;;4988348;28;20497;-72
2022/11/05 08:41:15;;;;;;;13.50;6.65;;;12.20;99.90;;;;;;4987706;28;19974;-80
2022/11/05 08:43:41;;;;;;;4.53;2.30;;;13.90;99.90;;;;;;4986862;28;20051;-77
2022/11/05 08:46:06;;;;;;;;;;;15.50;99.90;;;;;;4988377;28;20081;-71
2022/11/05 08:48:32;;;;;;;6.72;2.40;;;16.50;99.90;;;;;;4988487;28;20388;-75
2022/11/05 08:50:59;;;;;;;5.50;2.70;;;17.80;99.90;;;;;;4986186;28;20462;-74
2022/11/05 08:53:25;;;;;;;7.57;3.15;;;18.70;99.90;;;;;;4989564;28;20046;-81
2022/11/05 08:55:51;;;;;;;4.78;2.15;;;19.40;99.90;;;;;;4991957;28;20366;-77
2022/11/05 08:58:17;;;;;;;4.80;2.13;;;19.60;99.90;;;;;;4992606;28;20045;-77
2022/11/05 09:00:48;;;;;;;4.65;2.05;;;19.70;99.90;;;;;;4991640;28;20038;-74
2022/11/05 09:03:13;;;;;;;6.22;2.03;;;19.60;99.90;;;;;;4992411;28;20042;-76
2022/11/05 09:05:40;;;;;;;6.90;2.08;;;18.50;99.90;;;;;;4991988;28;20892;-81
2022/11/05 09:08:11;;;;;;;3.90;1.60;;;17.60;99.90;;;;;;4991937;28;20046;-76
2022/11/05 09:10:38;;;;;;;5.50;2.40;;;17.00;99.90;;;;;;4991790;28;20061;-78
2022/11/05 09:13:07;;;;;;;3.40;1.33;;;16.20;99.90;;;;;;4995491;28;20457;-78
2022/11/05 09:15:34;;;;;;;4.05;1.60;;;15.50;99.90;;;;;;4991544;28;20056;-77
2022/11/05 09:18:01;;;;;;;7.97;1.92;;;15.20;99.90;;;;;;4991129;28;20047;-79
2022/11/05 09:20:27;;;;;;;3.97;1.60;;;15.40;99.90;;;;;;4991898;28;20050;-77
2022/11/05 09:22:55;;;;;;;4.43;1.80;;;16.50;99.90;;;;;;4991833;28;20038;-83
2022/11/05 09:25:21;;;;;;;4.63;1.80;;;17.70;99.90;;;;;;4990561;28;20042;-79
2022/11/05 09:27:46;;;;;;;5.97;1.88;;;18.80;99.90;;;;;;4992979;28;20125;-89
2022/11/05 09:30:15;;;;;;;6.65;1.70;;;19.70;99.90;;;;;;4992324;28;20078;-80
2022/11/05 09:32:41;;;;;;;4.15;1.63;;;20.70;99.90;;;;;;4987211;28;20046;-80
2022/11/05 09:35:10;;;;;;;6.30;1.80;;;20.90;99.90;;;;;;4992656;28;20040;-88
2022/11/05 09:37:36;;;;;;;4.88;1.70;;;21.80;99.90;;;;;;4990638;28;20111;-80
2022/11/05 09:40:03;;;;;;;4.28;1.80;;;22.50;99.70;;;;;;4994876;28;20046;-80
2022/11/05 09:42:34;;;;;;;4.40;1.65;;;23.30;97.90;;;;;;4991127;28;20035;-77
2022/11/05 09:45:14;;;;;;;5.43;1.70;;;24.10;96.20;;;;;;4992118;28;20627;-78
2022/11/05 09:47:43;;;;;;;5.07;1.80;;;24.70;94.30;;;;;;4991961;28;20058;-78
2022/11/05 09:50:16;;;;;;;9.40;2.60;;;24.20;93.60;;;;;;4988956;28;20050;-81
2022/11/05 09:52:42;;;;;;;5.28;1.80;;;23.70;94.10;;;;;;4989295;28;20042;-79
2022/11/05 09:55:38;;;;;;;4.78;2.00;;;23.30;93.20;;;;;;4991877;28;20036;-75
2022/11/05 09:58:26;;;;;;;7.07;2.08;;;22.00;93.80;;;;;;4991087;28;20485;-75
2022/11/05 10:00:53;;;;;;;9.55;2.15;;;19.80;97.00;;;;;;4989973;28;20046;-77
2022/11/05 10:03:21;;;;;;;20.38;3.83;;;18.30;99.50;;;;;;4994759;28;20038;-77
2022/11/05 10:05:49;;;;;;;9.43;3.00;;;17.70;99.90;;;;;;4991301;28;20099;-77
2022/11/05 10:08:21;;;;;;;9.82;2.38;;;16.90;99.90;;;;;;4991901;28;20586;-77
2022/11/05 10:10:57;;;;;;;19.38;3.33;;;16.80;99.90;;;;;;4990626;28;20067;-72
2022/11/05 10:13:49;;;;;;;6.95;1.92;;;16.50;99.90;;;;;;4992803;28;20493;-76
2022/11/05 10:16:29;;;;;;;9.65;1.95;;;16.20;99.90;;;;;;4991627;28;20054;-77
2022/11/05 10:19:08;;;;;;;12.20;2.20;;;15.80;99.90;;;;;;4990648;28;20046;-77
2022/11/05 10:21:36;;;;;;;17.95;4.03;;;15.80;99.90;;;;;;4987421;28;20092;-77
2022/11/05 10:24:16;;;;;;;12.88;1.90;;;16.60;99.90;;;;;;4992253;28;20390;-78
2022/11/05 10:26:46;;;;;;;9.93;2.20;;;17.30;99.90;;;;;;4987854;28;20042;-78
2022/11/05 10:29:34;;;;;;;9.25;1.92;;;17.60;99.90;;;;;;4989440;28;20418;-78
2022/11/05 10:32:04;;;;;;;7.88;1.90;;;18.30;99.90;;;;;;4986661;28;20494;-87
2022/11/05 10:34:33;;;;;;;6.88;2.05;;;18.70;99.90;;;;;;4988938;28;20054;-80
2022/11/05 10:36:59;;;;;;;5.38;1.50;;;18.90;99.90;;;;;;4984555;28;20111;-79
2022/11/05 10:39:28;;;;;;;8.05;2.10;;;18.90;99.90;;;;;;4991532;28;20095;-84
2022/11/05 10:42:00;;;;;;;4.85;1.73;;;19.50;99.90;;;;;;4990711;28;20049;-85
2022/11/05 10:44:44;;;;;;;4.10;1.70;;;19.70;99.90;;;;;;4985974;28;20081;-82
2022/11/05 10:47:42;;;;;;;5.40;2.00;;;19.30;99.30;;;;;;4995611;28;20493;-79
2022/11/05 10:50:17;;;;;;;4.70;1.60;;;19.10;99.70;;;;;;4985129;28;20042;-80
2022/11/05 10:53:12;;;;;;;8.95;1.65;;;19.40;99.40;;;;;;4991694;28;20057;-75
2022/11/05 10:55:45;;;;;;;4.80;1.70;;;19.30;98.50;;;;;;5002395;28;20057;-78
2022/11/05 10:58:16;;;;;;;3.80;1.52;;;18.30;99.60;;;;;;4992223;28;20155;-79
2022/11/05 11:00:49;;;;;;;4.90;1.75;;;17.90;99.90;;;;;;4990275;28;20088;-76
2022/11/05 11:03:49;;;;;;;3.95;1.70;;;17.10;99.90;;;;;;4989316;28;20042;-79
2022/11/05 11:06:26;;;;;;;4.43;1.70;;;17.20;99.90;;;;;;4992202;28;20049;-79
2022/11/05 11:08:53;;;;;;;;;;;17.30;99.90;;;;;;4987143;28;20113;-75
2022/11/05 11:11:29;;;;;;;6.13;1.90;;;17.00;99.90;;;;;;4990643;28;19932;-76
2022/11/05 11:14:16;;;;;;;5.15;2.03;;;16.10;99.90;;;;;;4994791;28;20042;-81
2022/11/05 11:16:44;;;;;;;4.38;1.50;;;15.60;99.90;;;;;;4987835;28;20057;-76
2022/11/05 11:19:30;;;;;;;3.58;1.55;;;15.00;99.90;;;;;;4989842;28;20085;-79
2022/11/05 11:22:02;;;;;;;3.83;1.50;;;14.80;99.90;;;;;;4989979;28;20397;-77
2022/11/05 11:24:52;;;;;;;21.38;4.32;;;14.40;99.90;;;;;;4989644;28;20077;-77
2022/11/05 11:27:24;;;;;;;11.95;2.10;;;14.20;99.90;;;;;;4989595;28;20129;-78
2022/11/05 11:29:59;;;;;;;7.05;1.80;;;13.90;99.90;;;;;;4990870;28;20042;-77
2022/11/05 11:32:31;;;;;;;4.72;1.58;;;13.70;99.90;;;;;;4987885;28;20053;-78
2022/11/05 11:35:01;;;;;;;5.43;1.85;;;13.70;99.90;;;;;;4989417;28;20137;-89
2022/11/05 11:37:33;;;;;;;4.15;1.45;;;13.20;99.90;;;;;;4989982;28;20038;-79
2022/11/05 11:40:29;;;;;;;4.03;1.33;;;13.20;99.90;;;;;;4991033;28;20109;-78
2022/11/05 11:42:58;;;;;;;2.90;1.17;;;12.90;99.90;;;;;;4989040;28;20145;-78
2022/11/05 11:45:31;;;;;;;3.97;1.35;;;12.70;99.90;;;;;;4991226;28;20410;-83
2022/11/05 11:48:04;;;;;;;3.50;1.20;;;12.80;99.90;;;;;;4992335;28;20342;-77
2022/11/05 11:50:41;;;;;;;5.05;1.40;;;12.60;99.90;;;;;;4981925;28;20061;-70
2022/11/05 11:53:28;;;;;;;4.88;1.30;;;12.50;99.90;;;;;;4987936;28;20125;-72
2022/11/05 11:55:54;;;;;;;4.43;1.10;;;12.50;99.90;;;;;;4988072;28;20058;-72
2022/11/05 11:58:36;;;;;;;2.45;1.30;;;12.40;99.90;;;;;;4991375;28;20045;-70
2022/11/05 12:01:10;;;;;;;2.78;1.40;;;12.40;99.90;;;;;;5018086;27;20133;-74
2022/11/05 12:03:56;;;;;;;2.83;1.85;;;12.40;99.90;;;;;;4994382;28;20053;-74
2022/11/05 12:06:37;;;;;;;2.88;0.98;;;12.40;99.90;;;;;;4998443;28;20046;-72
2022/11/05 12:09:20;;;;;;;6.38;1.50;;;12.40;99.90;;;;;;5005592;28;20085;-74
2022/11/05 12:11:55;;;;;;;3.95;1.20;;;12.30;99.90;;;;;;5005188;28;20061;-76
2022/11/05 12:14:42;;;;;;;4.18;1.35;;;12.20;99.90;;;;;;4997018;28;20089;-75
2022/11/05 12:17:22;;;;;;;3.40;1.42;;;12.20;99.90;;;;;;4990958;28;20060;-74
2022/11/05 12:20:11;;;;;;;5.20;1.65;;;12.20;99.90;;;;;;4985049;28;20120;-77
2022/11/05 12:23:15;;;;;;;7.57;2.10;;;12.10;99.90;;;;;;4999983;28;20088;-75
2022/11/05 12:26:05;;;;;;;3.70;1.40;;;11.90;99.90;;;;;;4995963;28;20042;-76
2022/11/05 12:28:34;;;;;;;3.97;1.30;;;12.00;99.90;;;;;;5003254;28;20046;-74
2022/11/05 12:31:21;;;;;;;5.00;1.50;;;11.90;99.90;;;;;;5004460;28;20051;-75
2022/11/05 12:34:10;;;;;;;7.57;2.25;;;12.00;99.90;;;;;;5003521;28;20370;-72
2022/11/05 12:37:18;;;;;;;4.88;1.70;;;12.00;99.90;;;;;;5005778;28;21119;-73
2022/11/05 12:40:09;;;;;;;5.22;1.77;;;11.90;99.90;;;;;;4994038;28;20070;-73
2022/11/05 12:43:02;;;;;;;4.38;1.80;;;11.90;99.90;;;;;;5005540;28;20061;-74
2022/11/05 12:45:49;;;;;;;6.38;1.95;;;11.90;99.90;;;;;;4996762;28;20072;-74
2022/11/05 12:48:32;;;;;;;5.00;1.90;;;11.90;99.90;;;;;;4997463;28;20051;-73
2022/11/05 12:51:27;;;;;;;4.82;1.80;;;12.00;99.90;;;;;;4998196;28;20558;-74
2022/11/05 12:53:52;;;;;;;5.43;2.17;;;12.20;99.90;;;;;;4995343;28;20035;-74
2022/11/05 12:56:20;;;;;;;;;;;12.70;99.90;;;;;;4997102;28;20049;-75
2022/11/05 12:58:53;;;;;;;5.95;2.28;;;13.60;99.90;;;;;;4995846;28;19930;-74
2022/11/05 13:01:30;;;;;;;4.43;2.15;;;13.90;99.90;;;;;;4989019;28;20088;-76
2022/11/05 13:04:05;;;;;;;6.28;2.50;;;13.70;99.90;;;;;;4990658;28;20405;-73
2022/11/05 13:06:36;;;;;;;4.65;2.00;;;13.40;99.90;;;;;;4993156;28;20463;-76
2022/11/05 13:09:10;;;;;;;14.48;3.00;;;13.70;99.90;;;;;;4987408;28;20066;-77
2022/11/05 13:11:51;;;;;;;6.35;3.00;;;13.10;99.90;;;;;;4988343;28;20115;-75
2022/11/05 13:14:22;;;;;;;6.25;2.90;;;13.10;99.90;;;;;;4987943;28;20532;-75
2022/11/05 13:16:55;;;;;;;6.38;2.75;;;13.30;99.90;;;;;;5069553;28;20395;-74
2022/11/05 13:19:26;;;;;;;7.95;2.72;;;13.10;99.90;;;;;;4997576;28;20540;-73
2022/11/05 13:22:30;;;;;;;6.93;2.78;;;13.00;99.90;;;;;;4991970;28;20520;-76
2022/11/05 13:25:01;;;;;;;6.22;2.60;;;12.80;99.90;;;;;;4983020;28;20048;-76
2022/11/05 13:27:46;;;;;;;5.47;2.63;;;12.70;99.90;;;;;;4986950;28;20050;-73
2022/11/05 13:30:20;;;;;;;7.88;2.95;;;12.80;99.90;;;;;;4988264;28;20417;-75
2022/11/05 13:32:57;;;;;;;6.00;2.97;;;12.60;99.90;;;;;;4996222;28;20049;-74
2022/11/05 13:35:29;;;;;;;7.95;2.95;;;12.50;99.90;;;;;;5009091;28;20047;-74
2022/11/05 13:41:30;;;;;;;8.68;4.43;;;12.60;99.90;;;;;;4990401;28;20375;-74
2022/11/05 13:44:23;;;;;;;6.43;2.90;;;12.50;99.90;;;;;;5008769;28;20154;-73
2022/11/05 13:47:18;;;;;;;5.82;2.42;;;12.40;99.90;;;;;;4992864;28;20576;-72
2022/11/05 13:50:00;;;;;;;8.00;3.25;;;12.40;99.90;;;;;;4989810;28;20074;-72
2022/11/05 13:52:59;;;;;;;6.40;3.15;;;12.20;99.90;;;;;;4992111;28;20115;-72
2022/11/05 13:55:24;;;;;;;7.32;3.40;;;12.30;99.90;;;;;;4998459;28;20045;-71
2022/11/05 13:58:20;;;;;;;;;;;12.00;99.90;;;;;;5000278;28;20925;-71
2022/11/05 14:01:13;;;;;;;6.63;3.40;;;11.90;99.90;;;;;;5006933;28;19928;-74
2022/11/05 14:03:48;;;;;;;7.32;3.17;;;11.80;99.90;;;;;;4999846;28;20067;-72
2022/11/05 14:06:26;;;;;;;6.80;2.88;;;11.80;99.90;;;;;;4993165;28;20053;-73
2022/11/05 14:08:57;;;;;;;9.93;3.33;;;11.80;99.90;;;;;;5000657;28;20070;-71
2022/11/05 14:11:29;;;;;;;6.80;2.92;;;11.70;99.90;;;;;;5008009;28;20125;-75
2022/11/05 14:14:02;;;;;;;6.50;3.08;;;11.80;99.90;;;;;;5009262;28;20054;-74
2022/11/05 14:16:47;;;;;;;7.45;3.20;;;11.60;99.90;;;;;;5008548;28;20089;-73
2022/11/05 14:19:19;;;;;;;6.32;3.10;;;12.00;99.90;;;;;;5004794;28;20236;-74